createdAt,value
2022-09-04T00:03:07.609Z,100.00
2022-09-04T00:05:54.437Z,100.00
2022-09-04T00:08:59.921Z,100.00
2022-09-04T00:12:12.896Z,100.00
2022-09-04T00:14:53.194Z,100.00
2022-09-04T00:17:56.758Z,100.00
2022-09-04T00:21:03.691Z,100.00
2022-09-04T00:23:56.952Z,100.00
2022-09-04T00:26:57.155Z,100.00
2022-09-04T00:30:09.077Z,100.00
2022-09-04T00:32:57.029Z,100.00
2022-09-04T00:35:45.307Z,100.00
2022-09-04T00:38:47.845Z,100.00
2022-09-04T00:42:04.401Z,100.00
2022-09-04T00:48:35.840Z,100.00
2022-09-04T00:51:21.555Z,100.00
2022-09-04T00:54:22.252Z,100.00
2022-09-04T00:57:26.447Z,100.00
2022-09-04T01:00:21.919Z,100.00
2022-09-04T01:03:27.455Z,100.00
2022-09-04T01:06:14.655Z,100.00
2022-09-04T01:09:22.581Z,100.00
2022-09-04T01:12:21.291Z,100.00
2022-09-04T01:15:18.475Z,100.00
2022-09-04T01:18:30.872Z,100.00
2022-09-04T01:21:34.183Z,100.00
2022-09-04T01:24:34.999Z,100.00
2022-09-04T01:27:22.230Z,100.00
2022-09-04T01:30:15.134Z,100.00
2022-09-04T01:33:22.507Z,100.00
2022-09-04T01:36:31.409Z,100.00
2022-09-04T01:39:19.314Z,100.00
2022-09-04T01:42:09.656Z,100.00
2022-09-04T01:44:48.277Z,100.00
2022-09-04T01:47:58.797Z,100.00
2022-09-04T01:50:29.329Z,100.00
2022-09-04T01:53:20.334Z,100.00
2022-09-04T01:56:22.014Z,100.00
2022-09-04T01:59:25.105Z,100.00
2022-09-04T02:02:47.463Z,100.00
2022-09-04T02:06:05.608Z,100.00
2022-09-04T02:12:51.852Z,100.00
2022-09-04T02:15:54.791Z,100.00
2022-09-04T02:18:51.303Z,100.00
2022-09-04T02:21:33.049Z,100.00
2022-09-04T02:24:30.128Z,100.00
2022-09-04T02:27:26.101Z,100.00
2022-09-04T02:30:24.020Z,100.00
2022-09-04T02:33:12.135Z,100.00
2022-09-04T02:35:56.230Z,100.00
2022-09-04T02:38:55.981Z,100.00
2022-09-04T02:42:12.522Z,100.00
2022-09-04T02:45:10.479Z,100.00
2022-09-04T02:48:08.358Z,100.00
2022-09-04T02:51:27.857Z,100.00
2022-09-04T02:54:51.753Z,100.00
2022-09-04T02:58:03.063Z,100.00
2022-09-04T03:00:42.779Z,100.00
2022-09-04T03:03:43.269Z,100.00
2022-09-04T03:06:44.078Z,100.00
2022-09-04T03:09:32.153Z,100.00
2022-09-04T03:12:32.177Z,100.00
2022-09-04T03:15:36.201Z,100.00
2022-09-04T03:18:59.341Z,100.00
2022-09-04T03:22:05.909Z,100.00
2022-09-04T03:25:10.215Z,100.00
2022-09-04T03:27:44.621Z,100.00
2022-09-04T03:30:31.143Z,100.00
2022-09-04T03:33:16.782Z,100.00
2022-09-04T03:39:29.884Z,100.00
2022-09-04T03:42:30.772Z,100.00
2022-09-04T03:45:20.945Z,100.00
2022-09-04T03:48:34.067Z,100.00
2022-09-04T03:51:49.692Z,100.00
2022-09-04T03:54:42.197Z,100.00
2022-09-04T03:57:42.927Z,100.00
2022-09-04T04:00:22.346Z,100.00
2022-09-04T04:03:02.566Z,100.00
2022-09-04T04:05:59.108Z,100.00
2022-09-04T04:09:05.963Z,100.00
2022-09-04T04:11:54.833Z,100.00
2022-09-04T04:14:55.162Z,100.00
2022-09-04T04:17:54.248Z,100.00
2022-09-04T04:20:56.230Z,100.00
2022-09-04T04:24:00.353Z,100.00
2022-09-04T04:26:54.796Z,100.00
2022-09-04T04:29:58.205Z,100.00
2022-09-04T04:33:00.901Z,100.00
2022-09-04T04:36:01.858Z,100.00
2022-09-04T04:39:01.331Z,100.00
2022-09-04T04:42:16.016Z,100.00
2022-09-04T04:45:35.407Z,100.00
2022-09-04T04:48:23.410Z,100.00
2022-09-04T04:51:27.145Z,100.00
2022-09-04T04:54:44.169Z,100.00
2022-09-04T04:57:37.891Z,100.00
2022-09-04T05:00:27.546Z,100.00
2022-09-04T05:03:37.920Z,100.00
2022-09-04T05:06:39.453Z,100.00
2022-09-04T05:10:06.575Z,100.00
2022-09-04T05:13:17.150Z,100.00
2022-09-04T05:16:08.369Z,100.00
2022-09-04T05:18:48.233Z,100.00
2022-09-04T05:22:11.913Z,100.00
2022-09-04T05:25:22.000Z,100.00
2022-09-04T05:28:23.580Z,100.00
2022-09-04T05:31:18.362Z,100.00
2022-09-04T05:34:16.328Z,100.00
2022-09-04T05:37:01.320Z,100.00
2022-09-04T05:40:22.241Z,100.00
2022-09-04T05:43:32.044Z,100.00
2022-09-04T05:46:55.563Z,100.00
2022-09-04T05:49:57.141Z,100.00
2022-09-04T05:53:16.386Z,100.00
2022-09-04T05:56:37.129Z,100.00
2022-09-04T05:59:50.708Z,100.00
2022-09-04T06:02:48.668Z,100.00
2022-09-04T06:05:34.779Z,100.00
2022-09-04T06:08:34.988Z,100.00
2022-09-04T06:11:41.957Z,100.00
2022-09-04T06:14:32.137Z,100.00
2022-09-04T06:17:14.721Z,100.00
2022-09-04T06:20:27.332Z,100.00
2022-09-04T06:23:53.489Z,100.00
2022-09-04T06:27:22.413Z,100.00
2022-09-04T06:30:11.086Z,100.00
2022-09-04T06:33:10.601Z,100.00
2022-09-04T06:36:04.840Z,100.00
2022-09-04T06:39:13.764Z,100.00
2022-09-04T06:42:11.102Z,100.00
2022-09-04T06:44:56.617Z,100.00
2022-09-04T06:47:50.080Z,100.00
2022-09-04T06:51:23.415Z,100.00
2022-09-04T06:54:47.776Z,100.00
2022-09-04T06:57:41.997Z,100.00
2022-09-04T07:00:19.061Z,100.00
2022-09-04T07:03:15.618Z,100.00
2022-09-04T07:06:40.150Z,100.00
2022-09-04T07:09:11.890Z,100.00
2022-09-04T07:12:19.083Z,100.00
2022-09-04T07:18:58.162Z,100.00
2022-09-04T07:21:52.272Z,100.00
2022-09-04T07:24:30.063Z,100.00
2022-09-04T07:27:23.880Z,100.00
2022-09-04T07:30:07.638Z,100.00
2022-09-04T07:33:05.647Z,100.00
2022-09-04T07:35:53.016Z,100.00
2022-09-04T07:38:57.578Z,100.00
2022-09-04T07:41:55.326Z,100.00
2022-09-04T07:44:40.433Z,100.00
2022-09-04T07:47:47.918Z,100.00
2022-09-04T07:50:40.687Z,100.00
2022-09-04T07:53:35.472Z,100.00
2022-09-04T07:56:54.087Z,100.00
2022-09-04T08:00:03.386Z,100.00
2022-09-04T08:03:08.653Z,100.00
2022-09-04T08:06:00.488Z,100.00
2022-09-04T08:08:56.937Z,100.00
2022-09-04T08:12:01.793Z,100.00
2022-09-04T08:15:07.271Z,100.00
2022-09-04T08:18:07.055Z,100.00
2022-09-04T08:21:21.994Z,100.00
2022-09-04T08:24:02.075Z,100.00
2022-09-04T08:27:44.176Z,100.00
2022-09-04T08:33:00.898Z,100.00
2022-09-04T08:36:10.709Z,100.00
2022-09-04T08:39:35.563Z,100.00
2022-09-04T08:42:22.099Z,100.00
2022-09-04T08:45:35.061Z,100.00
2022-09-04T08:48:51.341Z,100.00
2022-09-04T08:51:54.061Z,100.00
2022-09-04T08:54:30.601Z,100.00
2022-09-04T08:57:41.819Z,100.00
2022-09-04T09:01:03.692Z,100.00
2022-09-04T09:04:05.219Z,100.00
2022-09-04T09:07:22.685Z,100.00
2022-09-04T09:10:32.108Z,100.00
2022-09-04T09:13:44.588Z,100.00
2022-09-04T09:17:08.243Z,100.00
2022-09-04T09:19:56.270Z,100.00
2022-09-04T09:23:09.012Z,100.00
2022-09-04T09:26:21.662Z,100.00
2022-09-04T09:29:37.140Z,100.00
2022-09-04T09:32:59.732Z,100.00
2022-09-04T09:35:58.279Z,100.00
2022-09-04T09:39:08.404Z,100.00
2022-09-04T09:42:12.497Z,100.00
2022-09-04T09:45:22.506Z,100.00
2022-09-04T09:48:35.781Z,100.00
2022-09-04T09:51:34.857Z,100.00
2022-09-04T09:54:26.462Z,100.00
2022-09-04T09:57:21.431Z,100.00
2022-09-04T10:00:28.285Z,100.00
2022-09-04T10:04:00.515Z,100.00
2022-09-04T10:06:53.590Z,100.00
2022-09-04T10:09:54.593Z,100.00
2022-09-04T10:13:05.209Z,100.00
2022-09-04T10:16:19.921Z,100.00
2022-09-04T10:19:42.642Z,100.00
2022-09-04T10:23:00.527Z,100.00
2022-09-04T10:26:20.266Z,100.00
2022-09-04T10:29:25.061Z,100.00
2022-09-04T10:32:02.701Z,100.00
2022-09-04T10:35:04.903Z,100.00
2022-09-04T10:38:16.557Z,100.00
2022-09-04T10:41:21.817Z,100.00
2022-09-04T10:44:25.464Z,100.00
2022-09-04T10:47:16.543Z,100.00
2022-09-04T10:50:03.658Z,88.98
2022-09-04T10:53:13.305Z,100.00
2022-09-04T10:56:06.301Z,95.61
2022-09-04T10:59:18.840Z,84.54
2022-09-04T11:02:27.542Z,98.92
2022-09-04T11:05:41.392Z,93.65
2022-09-04T11:08:16.614Z,84.25
2022-09-04T11:11:20.920Z,83.72
2022-09-04T11:14:15.379Z,83.62
2022-09-04T11:17:09.564Z,79.83
2022-09-04T11:20:29.800Z,76.82
2022-09-04T11:23:37.911Z,84.57
2022-09-04T11:26:38.404Z,73.72
2022-09-04T11:29:56.227Z,70.94
2022-09-04T11:32:53.918Z,78.27
2022-09-04T11:35:59.779Z,67.42
2022-09-04T11:38:57.243Z,61.74
2022-09-04T11:45:25.643Z,60.81
2022-09-04T11:48:40.017Z,63.88
2022-09-04T11:51:38.279Z,61.53
2022-09-04T11:54:33.771Z,63.05
2022-09-04T11:57:40.627Z,60.42
2022-09-04T12:00:35.805Z,57.59
2022-09-04T12:03:44.586Z,56.98
2022-09-04T12:07:15.551Z,57.54
2022-09-04T12:10:14.361Z,54.27
2022-09-04T12:13:15.396Z,54.29
2022-09-04T12:16:21.701Z,53.68
2022-09-04T12:19:35.657Z,52.92
2022-09-04T12:22:44.639Z,51.86
2022-09-04T12:25:41.943Z,51.72
2022-09-04T12:28:52.936Z,50.65
2022-09-04T12:31:51.511Z,51.24
2022-09-04T12:35:02.569Z,49.83
2022-09-04T12:38:10.804Z,48.94
2022-09-04T12:41:07.785Z,46.39
2022-09-04T12:44:05.633Z,44.42
2022-09-04T12:47:11.941Z,44.20
2022-09-04T12:50:02.296Z,43.10
2022-09-04T12:53:26.656Z,44.07
2022-09-04T12:56:44.736Z,46.34
2022-09-04T12:59:57.349Z,47.67
2022-09-04T13:03:01.446Z,45.71
2022-09-04T13:05:32.617Z,45.76
2022-09-04T13:08:52.434Z,45.78
2022-09-04T13:11:48.030Z,43.34
2022-09-04T13:15:20.087Z,43.55
2022-09-04T13:18:01.043Z,42.85
2022-09-04T13:21:11.702Z,41.33
2022-09-04T13:24:12.872Z,40.97
2022-09-04T13:27:38.803Z,40.81
2022-09-04T13:30:26.249Z,41.72
2022-09-04T13:33:19.041Z,38.87
2022-09-04T13:36:01.384Z,42.94
2022-09-04T13:39:04.079Z,45.26
2022-09-04T13:41:38.263Z,48.75
2022-09-04T13:44:29.560Z,37.32
2022-09-04T13:47:13.064Z,35.94
2022-09-04T13:50:25.928Z,36.99
2022-09-04T13:53:20.788Z,37.72
2022-09-04T13:56:01.638Z,36.99
2022-09-04T13:58:39.608Z,34.59
2022-09-04T14:01:23.711Z,37.53
2022-09-04T14:04:27.538Z,35.85
2022-09-04T14:07:09.801Z,35.86
2022-09-04T14:09:55.091Z,41.47
2022-09-04T14:13:05.833Z,42.39
2022-09-04T14:15:37.763Z,44.48
2022-09-04T14:18:45.616Z,44.49
2022-09-04T14:21:48.754Z,44.05
2022-09-04T14:24:59.619Z,45.10
2022-09-04T14:27:39.227Z,47.41
2022-09-04T14:30:28.171Z,56.54
2022-09-04T14:33:46.209Z,48.12
2022-09-04T14:37:01.682Z,53.94
2022-09-04T14:39:53.230Z,49.59
2022-09-04T14:43:19.783Z,55.63
2022-09-04T14:46:17.187Z,56.17
2022-09-04T14:49:04.253Z,56.51
2022-09-04T14:52:01.791Z,70.78
2022-09-04T14:54:47.563Z,50.74
2022-09-04T14:57:53.615Z,49.06
2022-09-04T15:00:32.677Z,49.10
2022-09-04T15:03:23.352Z,44.40
2022-09-04T15:05:58.748Z,65.90
2022-09-04T15:08:42.152Z,49.49
2022-09-04T15:11:33.629Z,54.39
2022-09-04T15:14:29.294Z,60.26
2022-09-04T15:17:14.621Z,60.15
2022-09-04T15:20:12.529Z,64.28
2022-09-04T15:23:15.883Z,77.17
2022-09-04T15:26:21.865Z,87.22
2022-09-04T15:29:06.182Z,87.66
2022-09-04T15:32:03.643Z,91.84
2022-09-04T15:34:57.873Z,91.47
2022-09-04T15:37:29.967Z,94.09
2022-09-04T15:40:33.423Z,100.00
2022-09-04T15:43:38.171Z,100.00
2022-09-04T15:46:38.219Z,100.00
2022-09-04T15:49:43.850Z,100.00
2022-09-04T15:52:51.329Z,100.00
2022-09-04T15:55:40.334Z,100.00
2022-09-04T15:58:26.979Z,100.00
2022-09-04T16:01:27.463Z,100.00
2022-09-04T16:04:41.428Z,100.00
2022-09-04T16:07:50.312Z,100.00
2022-09-04T16:10:29.521Z,100.00
2022-09-04T16:13:44.644Z,100.00
2022-09-04T16:16:26.808Z,100.00
2022-09-04T16:18:55.019Z,100.00
2022-09-04T16:21:41.644Z,100.00
2022-09-04T16:24:26.180Z,100.00
2022-09-04T16:27:05.183Z,100.00
2022-09-04T16:29:49.143Z,100.00
2022-09-04T16:32:29.024Z,100.00
2022-09-04T16:35:26.995Z,100.00
2022-09-04T16:38:22.220Z,100.00
2022-09-04T16:41:15.014Z,100.00
2022-09-04T16:44:26.827Z,100.00
2022-09-04T16:47:07.050Z,100.00
2022-09-04T16:49:55.065Z,100.00
2022-09-04T16:53:12.705Z,100.00
2022-09-04T16:56:16.250Z,100.00
2022-09-04T16:58:53.938Z,100.00
2022-09-04T17:01:54.393Z,100.00
2022-09-04T17:04:49.941Z,100.00
2022-09-04T17:07:42.373Z,100.00
2022-09-04T17:10:40.538Z,100.00
2022-09-04T17:13:28.011Z,100.00
2022-09-04T17:16:36.263Z,100.00
2022-09-04T17:19:09.544Z,100.00
2022-09-04T17:27:58.784Z,100.00
2022-09-04T17:29:09.205Z,100.00
2022-09-04T17:29:14.170Z,100.00
2022-09-04T17:31:50.568Z,100.00
2022-09-04T17:40:38.612Z,100.00
2022-09-04T17:40:56.465Z,100.00
2022-09-04T17:41:40.013Z,100.00
2022-09-04T17:44:51.335Z,100.00
2022-09-04T17:47:45.363Z,100.00
2022-09-04T17:50:53.575Z,100.00
2022-09-04T17:53:34.188Z,100.00
2022-09-04T17:59:46.365Z,100.00
2022-09-04T18:02:54.266Z,100.00
2022-09-04T18:05:51.621Z,100.00
2022-09-04T18:08:55.145Z,100.00
2022-09-04T18:11:36.698Z,100.00
2022-09-04T18:14:42.172Z,100.00
2022-09-04T18:17:59.527Z,100.00
2022-09-04T18:20:52.012Z,100.00
2022-09-04T18:23:59.913Z,100.00
2022-09-04T18:27:07.409Z,100.00
2022-09-04T18:33:44.647Z,100.00
2022-09-04T18:37:20.117Z,100.00
2022-09-04T18:37:21.163Z,100.00
2022-09-04T18:39:18.031Z,100.00
2022-09-04T18:50:20.883Z,100.00
2022-09-04T18:50:30.866Z,100.00
2022-09-04T18:50:33.993Z,100.00
2022-09-04T18:51:55.125Z,100.00
2022-09-04T18:54:54.938Z,100.00
2022-09-04T18:57:42.892Z,100.00
2022-09-04T19:00:29.143Z,100.00
2022-09-04T19:03:38.990Z,100.00
2022-09-04T19:06:49.673Z,100.00
2022-09-04T19:09:29.056Z,100.00
2022-09-04T19:12:16.340Z,100.00
2022-09-04T19:14:59.784Z,100.00
2022-09-04T19:17:55.714Z,100.00
2022-09-04T19:20:39.755Z,100.00
2022-09-04T19:23:12.598Z,100.00
2022-09-04T19:26:07.308Z,100.00
2022-09-04T19:28:58.088Z,100.00
2022-09-04T19:31:42.247Z,100.00
2022-09-04T19:34:51.719Z,100.00
2022-09-04T19:43:08.912Z,100.00
2022-09-04T19:45:59.685Z,100.00
2022-09-04T19:46:12.820Z,100.00
2022-09-04T19:47:27.558Z,100.00
2022-09-04T19:53:22.449Z,100.00
2022-09-04T19:53:49.263Z,100.00
2022-09-04T19:56:54.796Z,100.00
2022-09-04T19:59:44.876Z,100.00
2022-09-04T20:02:50.082Z,100.00
2022-09-04T20:05:33.499Z,100.00
2022-09-04T20:08:22.027Z,100.00
2022-09-04T20:11:35.126Z,100.00
2022-09-04T20:14:47.499Z,100.00
2022-09-04T20:17:54.755Z,100.00
2022-09-04T20:20:30.158Z,100.00
2022-09-04T20:23:33.969Z,100.00
2022-09-04T20:26:25.842Z,100.00
2022-09-04T20:32:28.523Z,100.00
2022-09-04T20:35:33.008Z,100.00
2022-09-04T20:38:53.257Z,100.00
2022-09-04T20:42:05.940Z,100.00
2022-09-04T20:47:21.691Z,100.00
2022-09-04T20:52:44.774Z,100.00
2022-09-04T20:52:53.164Z,100.00
2022-09-04T20:54:39.868Z,100.00
2022-09-04T21:00:32.751Z,100.00
2022-09-04T21:03:23.236Z,100.00
2022-09-04T21:03:57.547Z,100.00
2022-09-04T21:06:47.534Z,100.00
2022-09-04T21:10:13.363Z,100.00
2022-09-04T21:13:16.365Z,100.00
2022-09-04T21:16:02.174Z,100.00
2022-09-04T21:19:28.012Z,100.00
2022-09-04T21:22:34.041Z,100.00
2022-09-04T21:25:25.323Z,100.00
2022-09-04T21:28:16.020Z,100.00
2022-09-04T21:31:09.865Z,100.00
2022-09-04T21:34:16.819Z,100.00
2022-09-04T21:36:55.990Z,100.00
2022-09-04T21:40:04.946Z,100.00
2022-09-04T21:43:42.739Z,100.00
2022-09-04T21:46:37.160Z,100.00
2022-09-04T21:49:55.788Z,100.00
2022-09-04T21:53:03.843Z,100.00
2022-09-04T21:59:41.240Z,100.00
2022-09-04T22:02:43.607Z,100.00
2022-09-04T22:03:24.997Z,100.00
2022-09-04T22:09:12.482Z,100.00
2022-09-04T22:13:27.619Z,100.00
2022-09-04T22:13:50.631Z,100.00
2022-09-04T22:16:44.240Z,100.00
2022-09-04T22:19:45.546Z,100.00
2022-09-04T22:22:53.221Z,100.00
2022-09-04T22:26:23.473Z,100.00
2022-09-04T22:29:39.498Z,100.00
2022-09-04T22:32:46.120Z,100.00
2022-09-04T22:35:41.020Z,100.00
2022-09-04T22:38:51.733Z,100.00
2022-09-04T22:41:45.369Z,100.00
2022-09-04T22:44:43.913Z,100.00
2022-09-04T22:47:46.317Z,100.00
2022-09-04T22:50:50.731Z,100.00
2022-09-04T22:53:38.370Z,100.00
2022-09-04T22:56:25.010Z,100.00
2022-09-04T22:59:32.111Z,100.00
2022-09-04T23:03:08.355Z,100.00
2022-09-04T23:06:35.501Z,100.00
2022-09-04T23:13:51.184Z,100.00
2022-09-04T23:13:52.954Z,100.00
2022-09-04T23:15:52.750Z,100.00
2022-09-04T23:22:30.914Z,100.00
2022-09-04T23:26:31.470Z,100.00
2022-09-04T23:26:47.727Z,100.00
2022-09-04T23:28:36.273Z,100.00
2022-09-04T23:31:43.697Z,100.00
2022-09-04T23:34:42.543Z,100.00
2022-09-04T23:37:53.201Z,100.00
2022-09-04T23:41:02.225Z,100.00
2022-09-04T23:44:14.192Z,100.00
2022-09-04T23:47:46.570Z,100.00
2022-09-04T23:50:52.746Z,100.00
2022-09-04T23:53:50.001Z,100.00
2022-09-04T23:56:32.768Z,100.00
2022-09-04T23:59:42.044Z,100.00
